createdAt,value
2023-03-23T15:59:09.357Z,12.70
2023-03-23T16:01:39.457Z,12.70
2023-03-23T16:04:10.347Z,12.70
2023-03-23T16:06:40.243Z,12.80
2023-03-23T16:09:11.126Z,12.80
2023-03-23T16:11:39.180Z,12.80
2023-03-23T16:14:07.146Z,12.90
2023-03-23T16:16:38.068Z,12.70
2023-03-23T16:19:06.685Z,12.70
2023-03-23T16:21:34.578Z,12.70
2023-03-23T16:24:03.844Z,12.70
2023-03-23T16:26:31.737Z,12.60
2023-03-23T16:29:09.989Z,12.60
2023-03-23T16:31:40.894Z,12.50
2023-03-23T16:34:09.212Z,12.50
2023-03-23T16:36:37.169Z,12.40
2023-03-23T16:39:06.466Z,12.50
2023-03-23T16:41:34.355Z,12.50
2023-03-23T16:44:02.234Z,12.70
2023-03-23T16:46:30.448Z,12.50
2023-03-23T16:48:58.304Z,12.50
2023-03-23T16:51:26.444Z,12.50
2023-03-23T16:53:54.355Z,12.50
2023-03-23T16:56:23.728Z,12.40
2023-03-23T16:58:51.639Z,12.40
2023-03-23T17:01:19.774Z,12.30
2023-03-23T17:03:47.741Z,12.30
2023-03-23T17:06:16.001Z,12.30
2023-03-23T17:08:43.940Z,12.30
2023-03-23T17:11:12.322Z,12.20
2023-03-23T17:13:42.032Z,12.20
2023-03-23T17:16:10.520Z,12.20
2023-03-23T17:18:38.427Z,12.30
2023-03-23T17:21:06.933Z,12.30
2023-03-23T17:23:35.240Z,12.20
2023-03-23T17:26:04.156Z,12.20
2023-03-23T17:28:32.059Z,12.20
2023-03-23T17:31:01.403Z,12.50
2023-03-23T17:33:29.264Z,12.10
2023-03-23T17:35:57.166Z,12.10
2023-03-23T17:38:25.027Z,12.00
2023-03-23T17:40:57.813Z,11.90
2023-03-23T17:43:36.194Z,11.80
2023-03-23T17:46:06.588Z,11.70
2023-03-23T17:48:34.712Z,11.60
2023-03-23T17:51:04.917Z,11.50
2023-03-23T17:53:35.597Z,11.40
2023-03-23T17:56:05.065Z,11.30
2023-03-23T17:58:32.960Z,11.20
2023-03-23T18:01:01.028Z,11.30
2023-03-23T18:03:31.069Z,11.10
2023-03-23T18:06:00.465Z,11.90
2023-03-23T18:08:29.145Z,11.00
2023-03-23T18:10:58.694Z,11.10
2023-03-23T18:13:27.987Z,11.00
2023-03-23T18:15:57.063Z,11.10
2023-03-23T18:18:26.225Z,11.10
2023-03-23T18:20:57.400Z,11.20
2023-03-23T18:23:25.529Z,11.20
2023-03-23T18:25:54.584Z,11.20
2023-03-23T18:28:22.880Z,11.20
2023-03-23T18:30:51.017Z,11.30
2023-03-23T18:33:20.410Z,11.20
2023-03-23T18:35:48.785Z,11.40
2023-03-23T18:38:18.318Z,11.20
2023-03-23T18:40:47.361Z,11.20
2023-03-23T18:43:15.435Z,11.20
2023-03-23T18:45:43.556Z,11.40
2023-03-23T18:48:11.613Z,11.20
2023-03-23T18:50:39.588Z,11.30
2023-03-23T18:53:07.482Z,11.30
2023-03-23T18:55:36.731Z,11.30
2023-03-23T18:58:04.647Z,12.10
2023-03-23T19:00:33.772Z,11.40
2023-03-23T19:03:01.973Z,11.40
2023-03-23T19:05:29.885Z,11.40
2023-03-23T19:07:58.014Z,12.50
2023-03-23T19:10:26.173Z,11.40
2023-03-23T19:12:55.520Z,11.40
2023-03-23T19:15:24.445Z,11.50
2023-03-23T19:17:55.910Z,11.30
2023-03-23T19:21:06.451Z,11.90
2023-03-23T19:23:20.003Z,12.00
2023-03-23T19:25:47.959Z,11.10
2023-03-23T19:30:51.023Z,10.90
2023-03-23T19:33:33.090Z,11.00
2023-03-23T19:36:13.244Z,10.90
2023-03-23T19:38:44.570Z,10.80
2023-03-23T19:41:19.425Z,10.70
2023-03-23T19:43:48.741Z,10.70
2023-03-23T19:46:36.671Z,11.10
2023-03-23T19:49:15.703Z,10.80
2023-03-23T19:52:07.881Z,12.00
2023-03-23T19:55:10.286Z,10.60
2023-03-23T19:57:39.084Z,10.70
2023-03-23T20:00:38.848Z,10.60
2023-03-23T20:03:07.619Z,10.80
2023-03-23T20:05:36.905Z,10.60
2023-03-23T20:08:05.814Z,11.10
2023-03-23T20:10:35.568Z,11.90
2023-03-23T20:13:03.920Z,10.60
2023-03-23T20:15:33.905Z,11.70
2023-03-23T20:18:03.272Z,10.60
2023-03-23T20:20:31.627Z,11.90
2023-03-23T20:23:01.555Z,10.60
2023-03-23T20:25:29.996Z,10.60
2023-03-23T20:27:57.978Z,10.70
2023-03-23T20:30:25.961Z,11.10
2023-03-23T20:32:58.091Z,10.70
2023-03-23T20:35:26.470Z,10.70
2023-03-23T20:37:54.949Z,10.70
2023-03-23T20:40:22.966Z,11.10
2023-03-23T20:42:52.639Z,11.20
2023-03-23T20:45:20.602Z,10.80
2023-03-23T20:47:48.513Z,10.80
2023-03-23T20:50:18.803Z,11.60
2023-03-23T20:52:47.912Z,10.80
2023-03-23T20:55:16.061Z,11.40
2023-03-23T20:57:46.982Z,11.00
2023-03-23T21:00:17.895Z,11.00
2023-03-23T21:02:49.458Z,11.00
2023-03-23T21:05:18.905Z,11.00
2023-03-23T21:07:48.832Z,11.00
2023-03-23T21:10:16.832Z,11.00
2023-03-23T21:12:44.859Z,11.00
2023-03-23T21:15:14.126Z,11.00
2023-03-23T21:17:42.100Z,11.00
2023-03-23T21:20:11.434Z,10.90
2023-03-23T21:22:40.794Z,10.90
2023-03-23T21:25:09.994Z,10.90
2023-03-23T21:27:38.182Z,10.90
2023-03-23T21:30:07.020Z,10.90
2023-03-23T21:32:35.207Z,10.90
2023-03-23T21:35:04.326Z,11.90
2023-03-23T21:37:32.541Z,10.90
2023-03-23T21:40:01.818Z,11.60
2023-03-23T21:42:31.050Z,10.90
2023-03-23T21:45:02.527Z,10.90
2023-03-23T21:47:31.638Z,11.20
2023-03-23T21:50:00.146Z,11.80
2023-03-23T21:52:28.464Z,10.90
2023-03-23T21:54:58.797Z,11.10
2023-03-23T21:57:28.589Z,11.80
2023-03-23T21:59:56.713Z,10.90
2023-03-23T22:02:25.502Z,11.40
2023-03-23T22:04:56.526Z,11.80
2023-03-23T22:07:25.125Z,11.10
2023-03-23T22:09:53.300Z,11.70
2023-03-23T22:12:21.296Z,11.20
2023-03-23T22:14:50.601Z,11.30
2023-03-23T22:17:18.742Z,11.40
2023-03-23T22:19:46.830Z,11.20
2023-03-23T22:22:14.796Z,11.10
2023-03-23T22:24:42.713Z,11.70
2023-03-23T22:27:10.781Z,11.30
2023-03-23T22:29:38.770Z,11.80
2023-03-23T22:32:08.105Z,11.60
2023-03-23T22:34:36.125Z,12.00
2023-03-23T22:37:05.569Z,11.80
2023-03-23T22:39:34.443Z,11.60
2023-03-23T22:42:02.480Z,11.50
2023-03-23T22:44:30.436Z,11.30
2023-03-23T22:46:58.376Z,11.30
2023-03-23T22:49:27.707Z,12.30
2023-03-23T22:51:55.778Z,11.40
2023-03-23T22:54:23.776Z,12.30
2023-03-23T22:56:52.021Z,11.50
2023-03-23T22:59:20.207Z,11.50
2023-03-23T23:01:48.241Z,12.40
2023-03-23T23:04:16.239Z,11.60
2023-03-23T23:06:45.746Z,11.60
2023-03-23T23:09:13.654Z,11.60
2023-03-23T23:11:41.608Z,12.70
2023-03-23T23:14:09.845Z,11.60
2023-03-23T23:16:37.896Z,12.30
2023-03-23T23:19:06.005Z,12.50
2023-03-23T23:21:34.385Z,12.00
2023-03-23T23:24:03.792Z,12.80
2023-03-23T23:26:31.812Z,11.70
2023-03-23T23:29:01.084Z,11.80
2023-03-23T23:31:33.717Z,12.40
2023-03-23T23:34:03.593Z,12.00
2023-03-23T23:36:32.991Z,11.80
2023-03-23T23:39:04.030Z,12.30
2023-03-23T23:41:32.111Z,11.80
2023-03-23T23:44:00.609Z,12.10
2023-03-23T23:46:30.384Z,12.00
2023-03-23T23:48:58.677Z,12.80
2023-03-23T23:51:27.676Z,11.90
2023-03-23T23:53:58.722Z,11.90
2023-03-23T23:56:29.002Z,12.50
2023-03-23T23:58:57.074Z,11.90
